Latest Weather Observations for Roseworthy

IDS60801

Issued at 3:05 pm CST Wednesday 23 July 2014 (issued every 30 minutes, with the page automatically refreshed every 10 minutes)

About weather observations | Map of weather stations | Latest weather observations for SA | Other Formats
Station Details ID: 023122 Name: ROSEWORTHY AWS Lat: -34.51 Lon: 138.68 Height: 65.0 m
Data from the previous 72 hours. | See also: Recent months at Roseworthy
Date/Time
CST
Temp
°C
App
Temp
°C
Dew
Point
Rel
Hum
%
Delta-T
°C
Wind Press
QNH
hPa
Press
MSL
hPa
Rain
since 9 am
mm
Dir
 
Spd
km/h
Gust
km/h
Spd
kts
Gust
kts
23/03:00pm 12.1 6.6 7.4 73 2.3 NE 26 33 14 18 1011.3 1011.4 1.4
23/02:30pm 13.0 7.0 8.5 74 2.3 NE 30 41 16 22 1011.5 - 1.4
23/02:00pm 10.9 5.8 7.8 81 1.5 ENE 24 35 13 19 1011.7 - 1.4
23/01:30pm 10.6 5.9 7.8 83 1.4 E 22 30 12 16 1012.8 - 1.4
23/01:00pm 10.8 7.1 7.9 82 1.4 ENE 17 20 9 11 1014.4 - 1.2
23/12:30pm 10.7 6.6 7.9 83 1.4 NE 19 26 10 14 1015.1 - 0.8
23/12:00pm 10.9 6.7 7.4 79 1.7 NNE 19 24 10 13 1015.8 1016.0 0.2
23/11:30am 11.8 7.9 6.9 72 2.3 N 17 24 9 13 1016.8 - 0.0
23/11:00am 11.8 9.1 7.3 74 2.2 NE 11 19 6 10 1017.4 - 0.0
23/10:30am 11.7 7.5 5.6 66 2.8 NE 17 22 9 12 1017.5 - 0.0
23/10:00am 12.0 6.7 5.2 63 3.1 NE 22 30 12 16 1017.5 - 0.0
23/09:30am 11.8 6.4 4.5 61 3.3 NE 22 28 12 15 1017.4 - 0.0
23/09:00am 10.6 5.2 4.3 65 2.8 NE 22 28 12 15 1017.4 1017.6 0.0
23/08:30am 10.2 3.9 3.5 63 2.9 NE 26 33 14 18 1017.4 - 0.0
23/08:00am 10.4 3.6 3.2 61 3.1 ENE 28 33 15 18 1017.0 - 0.0
23/07:30am 10.6 3.0 2.9 59 3.3 ENE 32 37 17 20 1017.1 - 0.0
23/07:00am 10.3 3.8 2.9 60 3.2 ENE 26 35 14 19 1017.3 - 0.0
23/06:30am 10.2 3.4 3.0 61 3.1 ENE 28 35 15 19 1017.3 - 0.0
23/06:00am 10.3 3.5 2.9 60 3.2 ENE 28 35 15 19 1017.1 1017.3 0.0
23/05:30am 10.3 3.5 2.9 60 3.2 ENE 28 35 15 19 1017.0 - 0.0
23/05:00am 10.4 3.6 3.0 60 3.2 ENE 28 35 15 19 1017.1 - 0.0
23/04:30am 10.5 3.7 3.1 60 3.2 ENE 28 35 15 19 1017.3 - 0.0
23/04:00am 10.5 3.7 3.1 60 3.2 ENE 28 35 15 19 1017.5 - 0.0
23/03:30am 10.5 3.7 3.1 60 3.2 NE 28 35 15 19 1017.8 - 0.0
23/03:00am 10.5 3.7 3.1 60 3.2 ENE 28 37 15 20 1018.1 1018.3 0.0
23/02:30am 10.6 4.2 3.4 61 3.2 ENE 26 35 14 19 1018.4 - 0.0
23/02:00am 10.1 3.8 3.6 64 2.9 NE 26 32 14 17 1018.9 - 0.0
23/01:30am 10.1 4.1 3.4 63 2.9 NE 24 32 13 17 1018.9 - 0.0
23/01:00am 10.1 3.7 3.4 63 2.9 NE 26 32 14 17 1019.0 - 0.0
23/12:30am 9.8 4.2 3.5 65 2.7 NE 22 32 12 17 1019.3 - 0.0
23/12:00am 9.6 4.4 3.8 67 2.5 NE 20 26 11 14 1019.9 1020.1 0.0
 
Date/Time
CST
Temp
°C
App
Temp
°C
Dew
Point
Rel
Hum
%
Delta-T
°C
Wind Press
QNH
hPa
Press
MSL
hPa
Rain
since 9 am
mm
Dir
 
Spd
km/h
Gust
km/h
Spd
kts
Gust
kts
22/11:30pm 10.0 4.1 3.7 65 2.8 NE 24 30 13 16 1020.5 - 0.0
22/11:00pm 10.4 4.5 3.7 63 3.0 ENE 24 32 13 17 1020.4 - 0.0
22/10:30pm 10.5 5.0 3.8 63 3.0 ENE 22 30 12 16 1020.4 - 0.0
22/10:00pm 9.8 4.7 4.2 68 2.5 ENE 20 26 11 14 1020.3 - 0.0
22/09:30pm 8.7 4.1 3.9 72 2.1 ENE 17 20 9 11 1020.4 - 0.0
22/09:00pm 8.5 4.0 4.3 75 1.8 ENE 17 20 9 11 1020.5 1020.7 0.0
22/08:30pm 8.7 3.9 4.5 75 1.9 ENE 19 20 10 11 1020.5 - 0.0
22/08:00pm 8.9 4.1 4.9 76 1.8 ENE 19 20 10 11 1020.5 - 0.0
22/07:30pm 8.9 4.1 4.9 76 1.8 ENE 19 20 10 11 1020.7 - 0.0
22/07:00pm 9.1 5.1 5.1 76 1.8 ENE 15 19 8 10 1020.8 - 0.0
22/06:30pm 8.4 4.8 5.2 80 1.4 ENE 13 15 7 8 1020.6 - 0.0
22/06:00pm 8.7 5.2 5.4 80 1.5 ENE 13 15 7 8 1020.5 1020.7 0.0
22/05:30pm 10.3 6.5 5.9 74 2.0 ENE 15 15 8 8 1020.6 - 0.0
22/05:00pm 13.2 10.1 7.2 67 2.9 ENE 13 17 7 9 1020.3 - 0.0
22/04:30pm 15.1 11.3 7.4 60 3.8 ENE 17 20 9 11 1020.1 - 0.0
22/04:00pm 16.3 12.9 7.8 57 4.3 ENE 15 22 8 12 1020.3 - 0.0
22/03:30pm 17.2 13.8 7.5 53 4.9 NE 15 20 8 11 1020.2 - 0.0
22/03:00pm 17.9 14.7 7.0 49 5.4 NNE 13 17 7 9 1020.3 1020.5 0.0
22/02:30pm 18.2 15.6 7.6 50 5.4 N 11 20 6 11 1020.4 - 0.0
22/02:00pm 18.0 14.6 5.9 45 5.9 NNE 13 17 7 9 1020.6 - 0.0
22/01:30pm 17.6 13.4 5.9 46 5.7 N 17 20 9 11 1020.9 - 0.0
22/01:00pm 17.5 13.9 6.7 49 5.4 NNE 15 20 8 11 1021.2 - 0.0
22/12:30pm 17.0 13.7 7.9 55 4.6 NE 15 20 8 11 1021.9 - 0.0
22/12:00pm 16.5 12.9 8.2 58 4.2 ENE 17 20 9 11 1022.4 1022.6 0.0
22/11:30am 16.2 13.1 8.9 62 3.8 NE 15 20 8 11 1022.9 - 0.0
22/11:00am 15.1 11.5 8.3 64 3.4 ENE 17 20 9 11 1023.2 - 0.0
22/10:30am 14.1 10.3 7.6 65 3.2 NE 17 20 9 11 1023.5 - 0.0
22/10:00am 13.2 9.9 6.5 64 3.2 NE 13 17 7 9 1023.7 - 0.0
22/09:30am 11.5 7.4 6.0 69 2.6 NE 17 20 9 11 1023.7 - 0.0
22/09:00am 10.0 5.6 5.0 71 2.3 NE 17 20 9 11 1023.5 1023.7 0.0
22/08:30am 8.4 3.4 3.8 73 2.0 NE 19 24 10 13 1023.2 - 0.0
22/08:00am 7.1 2.0 3.0 75 1.7 NE 19 24 10 13 1023.0 - 0.0
22/07:30am 6.2 1.1 2.8 79 1.4 NE 19 24 10 13 1023.0 - 0.0
22/07:00am 5.7 0.9 2.7 81 1.2 NE 17 20 9 11 1022.8 - 0.0
22/06:30am 5.6 0.8 2.6 81 1.2 NE 17 20 9 11 1022.4 - 0.0
22/06:00am 5.7 0.9 2.7 81 1.2 NE 17 20 9 11 1022.2 1022.4 0.0
22/05:30am 5.9 1.2 2.9 81 1.2 NE 17 20 9 11 1022.1 - 0.0
22/05:00am 6.1 1.4 3.1 81 1.3 NE 17 20 9 11 1022.1 - 0.0
22/04:30am 6.4 1.3 3.2 80 1.3 NE 19 22 10 12 1021.9 - 0.0
22/04:00am 6.2 1.2 3.4 82 1.2 NE 19 20 10 11 1021.9 - 0.0
22/03:30am 6.0 0.9 3.2 82 1.2 NE 19 20 10 11 1022.0 - 0.0
22/03:00am 5.7 1.0 3.0 83 1.1 ENE 17 19 9 10 1022.0 1022.2 0.0
22/02:30am 6.1 1.0 3.3 82 1.2 ENE 19 22 10 12 1022.0 - 0.0
22/02:00am 6.4 1.4 3.6 82 1.2 NE 19 22 10 12 1022.2 - 0.0
22/01:30am 6.2 1.6 3.5 83 1.1 NE 17 20 9 11 1022.2 - 0.0
22/01:00am 6.4 1.4 3.7 83 1.1 NE 19 22 10 12 1022.2 - 0.0
22/12:30am 6.6 1.7 4.1 84 1.1 NE 19 22 10 12 1022.3 - 0.0
22/12:00am 6.6 2.5 4.3 85 1.0 ENE 15 17 8 9 1022.4 1022.6 0.0
 
Date/Time
CST
Temp
°C
App
Temp
°C
Dew
Point
Rel
Hum
%
Delta-T
°C
Wind Press
QNH
hPa
Press
MSL
hPa
Rain
since 9 am
mm
Dir
 
Spd
km/h
Gust
km/h
Spd
kts
Gust
kts
21/11:30pm 6.0 2.2 3.8 86 0.9 ENE 13 17 7 9 1022.5 - 0.0
21/11:00pm 6.5 2.8 4.5 87 0.9 NE 13 17 7 9 1022.4 - 0.0
21/10:30pm 6.7 2.7 4.9 88 0.8 ENE 15 19 8 10 1022.4 - 0.0
21/10:00pm 6.1 2.4 4.6 90 0.6 ENE 13 15 7 8 1022.5 - 0.0
21/09:30pm 5.5 2.5 4.0 90 0.6 ENE 9 11 5 6 1022.5 - 0.0
21/09:00pm 6.0 3.0 4.3 89 0.7 ENE 9 11 5 6 1022.5 1022.7 0.0
21/08:30pm 7.2 4.9 5.5 89 0.8 E 7 9 4 5 1022.2 - 0.0
21/08:00pm 7.3 5.0 5.8 90 0.7 ENE 7 9 4 5 1022.0 - 0.0
21/07:30pm 7.3 4.7 5.9 91 0.6 E 9 11 5 6 1021.8 - 0.0
21/07:00pm 6.3 3.0 4.6 89 0.7 E 11 11 6 6 1021.7 - 0.0
21/06:30pm 7.3 4.9 5.3 87 0.9 E 7 7 4 4 1021.6 - 0.0
21/06:00pm 9.1 8.3 6.7 85 1.1 CALM 0 0 0 0 1021.3 1021.5 0.0
21/05:30pm 11.0 10.5 7.9 81 1.5 CALM 0 0 0 0 1021.2 - 0.0
21/05:00pm 13.0 12.8 8.9 76 2.1 CALM 0 0 0 0 1020.8 - 0.0
21/04:30pm 14.8 14.7 9.6 71 2.7 CALM 0 0 0 0 1020.5 - 0.0
21/04:00pm 13.6 12.8 9.8 78 2.0 NNE 4 7 2 4 1020.3 - 0.0
21/03:30pm 13.9 13.7 9.1 73 2.4 CALM 0 0 0 0 1020.2 - 0.0
21/03:00pm 14.1 12.2 7.6 65 3.2 NW 7 11 4 6 1020.4 1020.6 0.0
21/02:30pm 14.8 11.8 5.9 55 4.3 NNW 11 13 6 7 1020.4 - 0.0
21/02:00pm 15.0 11.1 7.1 59 3.9 NNW 17 24 9 13 1020.4 - 0.0
21/01:30pm 15.5 12.2 4.5 48 5.2 NW 11 15 6 8 1020.6 - 0.0
21/01:00pm 15.7 12.5 5.3 50 5.0 NNW 11 17 6 9 1020.9 - 0.0
21/12:30pm 15.2 12.3 6.5 56 4.2 NNW 11 13 6 7 1021.3 - 0.0
21/12:00pm 14.5 10.9 6.6 59 3.8 N 15 19 8 10 1021.8 1022.0 0.0
21/11:30am 14.5 10.1 4.5 51 4.6 NNW 17 22 9 12 1022.2 - 0.0
21/11:00am 14.7 10.7 6.8 59 3.9 N 17 20 9 11 1022.4 - 0.0
21/10:30am 14.4 10.4 6.5 59 3.8 N 17 22 9 12 1022.4 - 0.0
21/10:00am 12.0 7.8 5.9 66 2.9 NE 17 20 9 11 1022.5 - 0.0
21/09:30am 11.5 7.4 6.2 70 2.5 NE 17 22 9 12 1022.5 - 0.0
21/09:00am 10.5 6.0 5.9 73 2.1 NE 19 24 10 13 1022.3 1022.5 0.0
21/08:30am 8.1 3.3 4.9 80 1.4 NE 19 20 10 11 1022.1 - 0.0
21/08:00am 7.8 3.0 4.6 80 1.4 NE 19 24 10 13 1022.1 - 0.0
21/07:30am 7.5 2.5 4.5 81 1.3 NE 20 26 11 14 1021.9 - 0.0
21/07:00am 7.2 1.8 4.3 82 1.3 NE 22 26 12 14 1021.9 - 0.0
21/06:30am 7.3 2.2 4.3 81 1.3 NE 20 24 11 13 1021.8 - 0.0
21/06:00am 7.4 2.4 4.4 81 1.3 ENE 20 26 11 14 1021.7 1021.9 0.0
21/05:30am 7.3 2.2 4.3 81 1.3 NE 20 26 11 14 1021.6 - 0.0
21/05:00am 7.6 2.6 4.6 81 1.3 ENE 20 26 11 14 1021.6 - 0.0
21/04:30am 7.3 2.9 4.6 83 1.2 NE 17 22 9 12 1021.7 - 0.0
21/04:00am 6.9 2.5 4.7 86 1.0 NE 17 20 9 11 1021.7 - 0.0
21/03:30am 6.8 3.8 4.1 83 1.2 NNE 9 11 5 6 1021.8 - 0.0
21/03:00am 7.6 2.8 4.7 82 1.3 NE 19 22 10 12 1021.7 1021.9 0.0
21/02:30am 7.1 3.5 4.8 85 1.0 NE 13 17 7 9 1021.8 - 0.0
21/02:00am 6.7 4.1 4.4 85 1.0 E 7 13 4 7 1021.8 - 0.0
21/01:30am 6.5 3.1 4.2 85 1.0 NE 11 15 6 8 1022.1 - 0.0
21/01:00am 6.3 3.0 4.3 87 0.9 NNE 11 13 6 7 1022.4 - 0.0
21/12:30am 7.0 3.7 4.7 85 1.0 ENE 11 15 6 8 1022.7 - 0.0
21/12:00am 6.8 3.1 4.6 86 1.0 ENE 13 17 7 9 1023.1 1023.3 0.0
 
Date/Time
CST
Temp
°C
App
Temp
°C
Dew
Point
Rel
Hum
%
Delta-T
°C
Wind Press
QNH
hPa
Press
MSL
hPa
Rain
since 9 am
mm
Dir
 
Spd
km/h
Gust
km/h
Spd
kts
Gust
kts
20/11:30pm 7.3 2.5 4.9 85 1.1 ENE 19 20 10 11 1023.1 - 0.0
20/11:00pm 7.9 3.9 5.0 82 1.3 ENE 15 20 8 11 1023.2 - 0.0
20/10:30pm 8.3 3.7 5.4 82 1.3 ENE 19 24 10 13 1023.2 - 0.0
20/10:00pm 8.5 4.7 5.8 83 1.2 ENE 15 20 8 11 1023.5 - 0.0
20/09:30pm 9.1 4.6 6.0 81 1.4 ENE 19 22 10 12 1023.7 - 0.0
20/09:00pm 9.3 4.8 6.2 81 1.4 ENE 19 22 10 12 1024.0 1024.1 0.0
20/08:30pm 9.1 5.0 6.2 82 1.3 ENE 17 20 9 11 1024.1 - 0.0
20/08:00pm 9.0 5.3 6.3 83 1.2 NE 15 19 8 10 1024.0 - 0.0
20/07:30pm 8.9 6.0 6.3 84 1.2 E 11 15 6 8 1023.9 - 0.0
20/07:00pm 9.5 6.3 6.8 83 1.3 ENE 13 17 7 9 1023.7 - 0.0
20/06:30pm 9.5 6.4 7.3 86 1.0 ENE 13 17 7 9 1023.7 - 0.0
20/06:00pm 9.5 7.5 7.1 85 1.1 E 7 9 4 5 1023.5 1023.7 0.0
20/05:30pm 10.1 7.8 7.5 84 1.2 N 9 9 5 5 1023.6 - 0.0
20/05:00pm 11.1 9.3 7.8 80 1.6 N 7 7 4 4 1023.5 - 0.0
20/04:30pm 11.7 10.0 7.4 75 2.1 NNW 6 7 3 4 1023.4 - 0.0
20/04:00pm 12.4 9.3 7.3 71 2.5 WNW 13 17 7 9 1023.4 - 0.0
20/03:30pm 13.8 11.2 7.6 66 3.1 NW 11 13 6 7 1023.2 - 0.0

Other Formats:

Comma delimited format used in spreadsheet applications
http://www.bom.gov.au/fwo/IDS60801/IDS60801.95671.axf

JavaScript Object Notation format (JSON) in row-major order
http://www.bom.gov.au/fwo/IDS60801/IDS60801.95671.json